Time;durP1;ratioP1;P1;durP2;ratioP2;P2;SDS_P1;SDS_P2;PMS_P1;PMS_P2;Temp;Humidity;BMP_temperature;BMP_pressure;BME280_temperature;BME280_humidity;BME280_pressure;Samples;Min_cycle;Max_cycle;Signal;HPM_P1;HPM_P2
2021/12/10 00:01:33;;;;;;;45.38;26.63;;;;;;;1.49;99.36;99711.13;5093980;28;20020;-53
2021/12/10 00:04:00;;;;;;;46.10;27.00;;;;;;;1.53;99.14;99710.47;5093691;28;20028;-54
2021/12/10 00:06:38;;;;;;;44.43;26.27;;;;;;;1.57;98.54;99709.81;5093196;28;20468;-53
2021/12/10 00:09:12;;;;;;;46.28;25.83;;;;;;;1.60;99.01;99707.44;5093683;28;20077;-53
2021/12/10 00:12:00;;;;;;;48.90;24.67;;;;;;;1.65;98.76;99697.50;5092740;28;20028;-53
2021/12/10 00:14:30;;;;;;;42.47;24.95;;;;;;;1.68;98.65;99684.06;5093198;28;20372;-54
2021/12/10 00:16:56;;;;;;;40.33;23.58;;;;;;;1.72;97.62;99675.81;5093597;28;20043;-53
2021/12/10 00:19:32;;;;;;;36.00;22.33;;;;;;;1.75;97.91;99679.34;5092955;28;20028;-52
2021/12/10 00:22:00;;;;;;;37.95;21.38;;;;;;;1.80;97.11;99671.94;5093366;28;20157;-53
2021/12/10 00:24:28;;;;;;;;;;;;;;;1.89;96.98;99656.25;5094139;28;20024;-54
2021/12/10 00:26:54;;;;;;;35.13;21.42;;;;;;;1.88;96.31;99652.81;5092670;28;19923;-53
2021/12/10 00:29:20;;;;;;;29.77;19.42;;;;;;;1.88;95.83;99652.81;5093478;28;20024;-54
2021/12/10 00:31:51;;;;;;;34.80;20.42;;;;;;;1.89;95.81;99644.41;5093041;28;20024;-53
2021/12/10 00:34:19;;;;;;;32.55;19.27;;;;;;;1.91;95.72;99637.72;5092869;28;20017;-54
2021/12/10 00:36:46;;;;;;;35.92;19.20;;;;;;;1.91;95.60;99627.56;5092900;28;20467;-54
2021/12/10 00:39:20;;;;;;;33.90;18.85;;;;;;;1.92;94.72;99618.25;5093039;28;20024;-52
2021/12/10 00:41:46;;;;;;;29.08;17.63;;;;;;;1.90;95.11;99615.66;5092628;28;20031;-53
2021/12/10 00:44:11;;;;;;;29.77;17.17;;;;;;;1.91;94.68;99607.25;5093103;28;20081;-54
2021/12/10 00:46:37;;;;;;;32.95;16.20;;;;;;;1.96;94.37;99607.41;5092875;28;20483;-54
2021/12/10 00:49:04;;;;;;;29.88;15.75;;;;;;;1.97;94.00;99596.47;5092393;28;20107;-54
2021/12/10 00:51:29;;;;;;;23.98;14.80;;;;;;;1.91;94.14;99594.53;5093115;28;20026;-53
2021/12/10 00:53:56;;;;;;;27.80;14.90;;;;;;;1.92;93.15;99588.63;5092178;28;20417;-54
2021/12/10 00:56:22;;;;;;;28.00;14.43;;;;;;;1.88;93.42;99580.81;5093090;28;20020;-53
2021/12/10 00:58:47;;;;;;;27.30;12.63;;;;;;;1.85;93.76;99581.56;5092917;28;20387;-54
2021/12/10 01:01:19;;;;;;;25.17;13.38;;;;;;;1.80;93.74;99570.31;5092219;28;20115;-53
2021/12/10 01:03:55;;;;;;;24.23;12.13;;;;;;;1.78;93.41;99571.91;5092736;28;20433;-54
2021/12/10 01:06:21;;;;;;;21.35;12.40;;;;;;;1.76;93.98;99560.84;5093080;28;20020;-53
2021/12/10 01:08:55;;;;;;;22.70;13.15;;;;;;;1.72;93.64;99559.81;5092228;28;20158;-53
2021/12/10 01:11:47;;;;;;;22.23;13.43;;;;;;;1.72;93.75;99543.72;5092976;28;20028;-54
2021/12/10 01:14:23;;;;;;;24.58;14.10;;;;;;;1.67;93.75;99540.97;5092533;28;20426;-54
2021/12/10 01:25:25;;;;;;;26.02;14.00;;;;;;;1.51;94.23;99510.63;5092509;28;20051;-53
2021/12/10 01:27:53;;;;;;;31.10;15.48;;;;;;;1.50;94.81;99501.25;5095353;28;20135;-55
2021/12/10 01:30:27;;;;;;;24.88;14.80;;;;;;;1.43;94.75;99490.84;5096286;28;20044;-54
2021/12/10 01:32:56;;;;;;;27.85;15.20;;;;;;;1.42;95.33;99494.19;5096646;28;20418;-54
2021/12/10 01:35:36;;;;;;;25.75;13.93;;;;;;;1.36;95.02;99488.81;5096653;28;20031;-54
2021/12/10 01:38:04;;;;;;;30.40;15.20;;;;;;;1.34;95.60;99485.34;5096098;28;20036;-54
2021/12/10 01:40:32;;;;;;;25.55;14.57;;;;;;;1.30;95.14;99480.94;5096556;28;20024;-54
2021/12/10 01:43:06;;;;;;;28.10;15.68;;;;;;;1.30;95.54;99465.69;5095705;28;20328;-55
2021/12/10 01:45:35;;;;;;;29.40;15.13;;;;;;;1.25;95.47;99464.63;5096530;28;20047;-54
2021/12/10 01:48:06;;;;;;;31.13;14.98;;;;;;;1.22;95.89;99460.28;5096587;28;20024;-54
2021/12/10 01:50:33;;;;;;;29.27;15.27;;;;;;;1.20;95.54;99461.91;5095644;28;20036;-53
2021/12/10 01:53:03;;;;;;;31.20;14.75;;;;;;;1.18;95.81;99457.56;5096537;28;20020;-54
2021/12/10 01:55:31;;;;;;;31.25;15.73;;;;;;;1.13;95.70;99454.81;5096200;28;20032;-54
2021/12/10 01:57:58;;;;;;;32.15;14.68;;;;;;;1.13;95.38;99452.25;5095277;28;20039;-54
2021/12/10 02:00:29;;;;;;;31.20;14.90;;;;;;;1.12;96.35;99453.06;5096143;28;20420;-54
2021/12/10 02:02:54;;;;;;;28.80;14.32;;;;;;;1.11;95.56;99446.25;5096201;28;20036;-54
2021/12/10 02:05:20;;;;;;;27.55;13.50;;;;;;;1.10;96.21;99442.00;5095395;28;20094;-55
2021/12/10 02:07:47;;;;;;;28.10;13.35;;;;;;;1.11;95.67;99444.59;5095979;28;20024;-55
2021/12/10 02:10:16;;;;;;;29.20;13.52;;;;;;;1.09;96.08;99432.63;5095680;28;20076;-55
2021/12/10 02:12:41;;;;;;;26.58;13.48;;;;;;;1.11;96.10;99424.28;5095496;28;20035;-53
2021/12/10 02:15:10;;;;;;;24.60;12.63;;;;;;;1.11;95.38;99420.88;5095867;28;20036;-52
2021/12/10 02:17:41;;;;;;;26.00;12.38;;;;;;;1.08;96.55;99416.53;5095517;28;20035;-54
2021/12/10 02:20:11;;;;;;;24.23;12.30;;;;;;;1.10;95.45;99409.00;5095332;28;20446;-54
2021/12/10 02:22:37;;;;;;;18.58;11.55;;;;;;;1.10;95.60;99404.78;5095599;28;20028;-54
2021/12/10 02:25:05;;;;;;;24.92;11.00;;;;;;;1.10;95.73;99397.19;5095259;28;20364;-53
2021/12/10 02:27:30;;;;;;;;;;;;;;;1.19;95.49;99393.28;5095602;28;20441;-54
2021/12/10 02:29:55;;;;;;;23.50;10.40;;;;;;;1.11;95.14;99387.88;5095839;28;19912;-53
2021/12/10 02:32:23;;;;;;;21.60;10.40;;;;;;;1.10;95.55;99378.56;5095111;28;20024;-53
2021/12/10 02:34:49;;;;;;;22.42;10.10;;;;;;;1.11;95.13;99376.09;5095520;28;20095;-51
2021/12/10 02:37:15;;;;;;;18.73;9.98;;;;;;;1.12;95.41;99366.78;5095103;28;20024;-53
2021/12/10 02:39:40;;;;;;;17.35;9.25;;;;;;;1.14;94.97;99360.13;5094618;28;20024;-53
2021/12/10 02:42:05;;;;;;;20.33;9.43;;;;;;;1.15;95.40;99351.72;5095571;28;20027;-53
2021/12/10 02:44:32;;;;;;;16.73;8.43;;;;;;;1.15;95.04;99349.19;5095379;28;20368;-53
2021/12/10 02:46:59;;;;;;;22.05;9.45;;;;;;;1.15;94.80;99346.63;5094715;28;20055;-54
2021/12/10 02:49:25;;;;;;;15.98;8.35;;;;;;;1.17;94.86;99339.94;5095462;28;20462;-53
2021/12/10 02:51:52;;;;;;;18.95;8.55;;;;;;;1.23;94.48;99340.22;5095247;28;20020;-52
2021/12/10 02:54:22;;;;;;;17.85;8.73;;;;;;;1.25;94.45;99338.63;5094496;28;20036;-53
2021/12/10 02:56:49;;;;;;;21.42;8.40;;;;;;;1.27;93.82;99331.06;5095093;28;20035;-54
2021/12/10 02:59:14;;;;;;;20.88;8.65;;;;;;;1.28;94.56;99336.19;5095181;28;20099;-54
2021/12/10 03:01:49;;;;;;;16.92;7.55;;;;;;;1.29;94.24;99322.72;5094246;28;20523;-54
2021/12/10 03:04:15;;;;;;;16.40;7.70;;;;;;;1.28;93.54;99320.97;5094992;28;20043;-54
2021/12/10 03:06:45;;;;;;;18.55;7.72;;;;;;;1.31;94.07;99307.53;5094547;28;20020;-54
2021/12/10 03:09:12;;;;;;;17.80;7.97;;;;;;;1.34;93.40;99312.72;5094473;28;20028;-54
2021/12/10 03:11:39;;;;;;;19.17;7.57;;;;;;;1.36;93.61;99302.66;5094932;28;20033;-54
2021/12/10 03:14:10;;;;;;;15.20;7.18;;;;;;;1.35;93.54;99300.94;5094599;28;20024;-54
2021/12/10 03:16:40;;;;;;;17.40;7.65;;;;;;;1.33;93.49;99305.06;5094105;28;20020;-54
2021/12/10 03:19:06;;;;;;;15.82;7.38;;;;;;;1.33;93.67;99298.31;5094445;28;20357;-54
2021/12/10 03:21:32;;;;;;;12.52;6.80;;;;;;;1.33;93.23;99289.81;5094008;28;20024;-54
2021/12/10 03:23:58;;;;;;;18.83;7.32;;;;;;;1.37;93.21;99286.59;5094686;28;20051;-53
2021/12/10 03:26:23;;;;;;;14.50;6.97;;;;;;;1.38;92.61;99275.66;5094596;28;20048;-54
2021/12/10 03:28:52;;;;;;;20.30;8.13;;;;;;;1.39;92.15;99274.84;5093545;28;20024;-54
2021/12/10 03:31:20;;;;;;;15.70;7.22;;;;;;;1.37;92.36;99272.25;5094581;28;20024;-54
2021/12/10 03:33:46;;;;;;;16.98;7.00;;;;;;;1.39;92.46;99273.16;5094204;28;20446;-53
2021/12/10 03:36:12;;;;;;;16.38;6.65;;;;;;;1.40;92.08;99269.84;5093709;28;20123;-54
2021/12/10 03:38:39;;;;;;;13.23;6.50;;;;;;;1.40;91.84;99266.44;5094399;28;20111;-54
2021/12/10 03:41:04;;;;;;;11.90;6.00;;;;;;;1.38;92.37;99243.53;5094460;28;20031;-55
2021/12/10 03:43:30;;;;;;;18.20;6.38;;;;;;;1.40;92.50;99251.22;5093624;28;20081;-54
2021/12/10 03:45:57;;;;;;;16.10;6.45;;;;;;;1.37;92.24;99248.53;5094095;28;20070;-53
2021/12/10 03:48:30;;;;;;;17.27;6.45;;;;;;;1.42;92.38;99245.38;5093979;28;20036;-54
2021/12/10 03:50:57;;;;;;;13.57;6.28;;;;;;;1.47;91.48;99241.38;5093022;28;20028;-53
2021/12/10 03:53:23;;;;;;;17.55;7.35;;;;;;;1.51;91.14;99234.75;5094279;28;20024;-54
2021/12/10 03:55:50;;;;;;;17.17;6.60;;;;;;;1.55;91.03;99226.44;5093704;28;20031;-54
2021/12/10 03:58:16;;;;;;;14.03;6.17;;;;;;;1.61;90.38;99231.75;5093576;28;20145;-54
2021/12/10 04:00:46;;;;;;;11.93;6.18;;;;;;;1.59;90.92;99233.34;5093737;28;20030;-54
2021/12/10 04:03:13;;;;;;;17.17;6.70;;;;;;;1.62;90.83;99222.47;5093861;28;20061;-54
2021/12/10 04:05:38;;;;;;;15.90;6.65;;;;;;;1.64;90.85;99216.63;5093174;28;20464;-53
2021/12/10 04:08:04;;;;;;;18.52;6.03;;;;;;;1.70;90.67;99213.44;5093957;28;20031;-54
2021/12/10 04:10:30;;;;;;;13.40;5.78;;;;;;;1.71;90.26;99216.88;5093550;28;20051;-54
2021/12/10 04:12:55;;;;;;;21.85;7.03;;;;;;;1.71;90.73;99211.81;5093167;28;20464;-55
2021/12/10 04:15:23;;;;;;;17.85;5.97;;;;;;;1.77;89.77;99212.00;5093726;28;20063;-54
2021/12/10 04:17:52;;;;;;;13.77;6.15;;;;;;;1.79;89.47;99185.84;5092582;28;20030;-55
2021/12/10 04:20:19;;;;;;;12.30;5.88;;;;;;;1.81;90.13;99196.09;5093450;28;20448;-54
2021/12/10 04:22:46;;;;;;;15.88;5.45;;;;;;;1.81;89.42;99188.47;5093471;28;20032;-54
2021/12/10 04:25:14;;;;;;;13.30;5.65;;;;;;;1.83;89.40;99183.44;5092368;28;20051;-54
2021/12/10 04:27:41;;;;;;;16.13;6.03;;;;;;;1.84;89.73;99177.56;5093280;28;20031;-55
2021/12/10 04:30:10;;;;;;;14.18;5.55;;;;;;;1.83;89.64;99181.78;5093436;28;20039;-53
2021/12/10 04:32:35;;;;;;;15.25;5.68;;;;;;;1.86;89.52;99165.78;5092528;28;20044;-54
2021/12/10 04:35:01;;;;;;;14.20;6.00;;;;;;;1.86;89.43;99159.03;5093353;28;20181;-54
2021/12/10 04:37:26;;;;;;;13.95;5.65;;;;;;;1.87;88.94;99148.03;5093044;28;20039;-54
2021/12/10 04:39:51;;;;;;;17.88;4.95;;;;;;;1.86;89.78;99146.34;5092578;28;20506;-55
2021/12/10 04:42:21;;;;;;;12.10;5.45;;;;;;;1.87;89.49;99137.88;5093310;28;20074;-54
2021/12/10 04:44:50;;;;;;;15.10;5.18;;;;;;;1.87;89.59;99137.03;5092183;28;20129;-54
2021/12/10 04:47:16;;;;;;;11.35;4.78;;;;;;;1.89;89.30;99131.19;5092746;28;20494;-54
2021/12/10 04:49:41;;;;;;;18.40;5.28;;;;;;;1.90;89.40;99117.69;5093167;28;20028;-54
2021/12/10 04:52:07;;;;;;;14.18;5.35;;;;;;;1.90;89.35;99107.53;5092916;28;20110;-54
2021/12/10 04:54:34;;;;;;;20.65;6.50;;;;;;;1.89;89.48;99115.09;5092484;28;20095;-53
2021/12/10 04:56:59;;;;;;;16.60;6.70;;;;;;;1.84;89.78;99104.75;5092822;28;20074;-54
2021/12/10 04:59:28;;;;;;;16.17;6.35;;;;;;;1.80;90.20;99096.16;5093242;28;20467;-54
2021/12/10 05:01:56;;;;;;;17.00;7.13;;;;;;;1.77;89.85;99088.44;5092517;28;20085;-54
2021/12/10 05:04:22;;;;;;;19.35;7.53;;;;;;;1.75;89.39;99091.72;5093325;28;20028;-53
2021/12/10 05:06:47;;;;;;;13.70;5.90;;;;;;;1.74;89.34;99093.41;5092817;28;20073;-53
2021/12/10 05:09:15;;;;;;;15.85;6.95;;;;;;;1.74;89.40;99090.00;5092204;28;20106;-53
2021/12/10 05:11:41;;;;;;;13.70;5.78;;;;;;;1.73;89.20;99084.06;5093233;28;20028;-53
2021/12/10 05:14:07;;;;;;;16.27;6.20;;;;;;;1.75;88.62;99076.50;5092394;28;20036;-54
2021/12/10 05:16:40;;;;;;;12.73;5.78;;;;;;;1.74;88.99;99079.84;5092817;28;20125;-54
2021/12/10 05:19:06;;;;;;;11.27;5.35;;;;;;;1.71;89.49;99077.19;5093028;28;20047;-53
2021/12/10 05:21:34;;;;;;;13.90;5.30;;;;;;;1.72;89.09;99076.38;5091888;28;20464;-54
2021/12/10 05:24:00;;;;;;;15.43;5.20;;;;;;;1.73;88.64;99078.09;5092714;28;20031;-54
2021/12/10 05:26:26;;;;;;;15.95;5.53;;;;;;;1.71;89.09;99069.56;5092569;28;20036;-54
2021/12/10 05:28:52;;;;;;;16.98;5.40;;;;;;;1.70;89.58;99068.69;5092169;28;20066;-54
2021/12/10 05:31:17;;;;;;;14.55;5.80;;;;;;;1.73;89.31;99067.94;5092760;28;20028;-54
2021/12/10 05:33:42;;;;;;;15.50;5.25;;;;;;;1.71;90.25;99069.56;5092421;28;20020;-54
2021/12/10 05:36:08;;;;;;;19.33;5.72;;;;;;;1.69;90.18;99063.56;5092063;28;20032;-54
2021/12/10 05:38:34;;;;;;;12.82;4.90;;;;;;;1.68;90.39;99064.38;5092407;28;20036;-54
2021/12/10 05:41:05;;;;;;;14.05;5.30;;;;;;;1.64;90.81;99054.09;5092540;28;20060;-54
2021/12/10 05:43:30;;;;;;;16.10;5.05;;;;;;;1.67;91.09;99057.59;5092215;28;20378;-53
2021/12/10 05:45:55;;;;;;;12.00;4.63;;;;;;;1.68;90.51;99044.06;5092638;28;20459;-51
2021/12/10 05:48:24;;;;;;;13.00;4.43;;;;;;;1.68;90.80;99038.97;5092520;28;20468;-53
2021/12/10 05:50:50;;;;;;;11.65;4.15;;;;;;;1.68;90.40;99034.78;5092283;28;20047;-54
2021/12/10 05:53:16;;;;;;;15.55;4.30;;;;;;;1.68;90.80;99038.97;5092397;28;20028;-54
2021/12/10 05:55:42;;;;;;;12.55;4.22;;;;;;;1.73;89.61;99042.53;5092147;28;20024;-54
2021/12/10 05:58:08;;;;;;;18.05;4.68;;;;;;;1.75;90.10;99036.69;5092015;28;20032;-54
2021/12/10 06:00:38;;;;;;;18.92;4.18;;;;;;;1.81;89.31;99036.06;5092623;28;20030;-53
2021/12/10 06:03:04;;;;;;;12.10;3.60;;;;;;;1.83;89.03;99039.50;5092336;28;20140;-54
2021/12/10 06:05:31;;;;;;;15.88;4.10;;;;;;;1.84;89.58;99041.25;5091901;28;20550;-54
2021/12/10 06:07:58;;;;;;;19.45;4.57;;;;;;;1.87;89.29;99031.19;5092543;28;20024;-52
2021/12/10 06:10:23;;;;;;;15.23;4.40;;;;;;;1.88;89.05;99032.91;5091553;28;20456;-53
2021/12/10 06:12:50;;;;;;;19.02;4.13;;;;;;;1.90;88.99;99025.34;5092965;28;20081;-55
2021/12/10 06:15:18;;;;;;;12.52;3.70;;;;;;;1.90;88.95;99023.69;5096196;28;20115;-54
2021/12/10 06:17:44;;;;;;;12.73;3.70;;;;;;;1.93;88.92;99025.47;5095090;28;20028;-54
2021/12/10 06:20:12;;;;;;;10.05;3.70;;;;;;;1.92;89.21;99026.28;5095833;28;20031;-53
2021/12/10 06:22:38;;;;;;;14.77;4.00;;;;;;;1.92;89.15;99023.75;5095731;28;20046;-54
2021/12/10 06:25:05;;;;;;;13.20;3.75;;;;;;;1.94;89.16;99020.44;5095212;28;20465;-53
2021/12/10 06:27:30;;;;;;;13.00;3.28;;;;;;;1.97;88.70;99017.13;5095681;28;20077;-53
2021/12/10 06:29:57;;;;;;;15.15;3.80;;;;;;;1.95;88.91;99016.22;5095403;28;20027;-54
2021/12/10 06:32:23;;;;;;;13.37;3.60;;;;;;;1.94;88.32;99012.81;5095280;28;20028;-53
2021/12/10 06:34:48;;;;;;;11.55;3.80;;;;;;;1.94;88.68;99014.50;5095278;28;20016;-53
2021/12/10 06:37:14;;;;;;;13.40;3.83;;;;;;;1.93;88.46;99010.22;5095449;28;20062;-54
2021/12/10 06:39:39;;;;;;;14.77;3.70;;;;;;;1.93;87.89;99021.25;5094736;28;20373;-54
2021/12/10 06:42:04;;;;;;;12.65;3.90;;;;;;;1.91;88.36;99012.72;5095484;28;20044;-54
2021/12/10 06:44:30;;;;;;;14.45;3.72;;;;;;;1.91;88.26;99012.72;5094999;28;20482;-55
2021/12/10 06:46:55;;;;;;;13.13;3.28;;;;;;;1.93;88.60;99012.78;5094765;28;20063;-54
2021/12/10 06:49:21;;;;;;;17.45;3.78;;;;;;;1.93;88.56;99008.53;5095306;28;20020;-55
2021/12/10 06:51:46;;;;;;;11.68;3.55;;;;;;;1.93;88.38;99018.69;5094772;28;20107;-54
2021/12/10 06:54:11;;;;;;;13.65;3.08;;;;;;;1.92;88.74;99016.13;5094744;28;20494;-54
2021/12/10 06:56:38;;;;;;;9.77;3.15;;;;;;;1.94;88.14;99017.91;5095034;28;20391;-54
2021/12/10 06:59:05;;;;;;;17.42;3.97;;;;;;;1.95;88.43;99019.63;5094861;28;20054;-54
2021/12/10 07:01:34;;;;;;;13.15;3.25;;;;;;;1.96;88.38;99026.44;5094283;28;20511;-54
2021/12/10 07:04:02;;;;;;;13.13;3.38;;;;;;;1.97;88.58;99033.25;5094916;28;20110;-54
2021/12/10 07:06:28;;;;;;;13.73;3.90;;;;;;;1.95;88.93;99027.25;5094275;28;20455;-54
2021/12/10 07:08:59;;;;;;;15.55;3.63;;;;;;;2.01;88.33;99023.19;5094974;28;20270;-54
2021/12/10 07:11:25;;;;;;;17.75;3.80;;;;;;;2.02;88.32;99019.84;5095055;28;20028;-54
2021/12/10 07:13:53;;;;;;;22.40;4.05;;;;;;;2.01;88.32;99018.97;5093697;28;20517;-54
2021/12/10 07:16:22;;;;;;;15.43;3.47;;;;;;;2.00;88.83;99009.59;5094772;28;20088;-54
2021/12/10 07:18:48;;;;;;;14.82;4.03;;;;;;;2.00;88.89;99024.84;5094622;28;20165;-54
2021/12/10 07:21:15;;;;;;;18.90;4.00;;;;;;;2.02;88.21;99019.84;5094312;28;20035;-54
2021/12/10 07:23:44;;;;;;;16.30;3.85;;;;;;;2.02;88.04;99019.84;5093969;28;20495;-53
2021/12/10 07:26:12;;;;;;;15.88;4.03;;;;;;;2.03;88.83;99011.38;5093352;28;20052;-54
2021/12/10 07:28:37;;;;;;;;;;;;;;;2.11;88.94;99015.06;5094262;28;20495;-54
2021/12/10 07:31:03;;;;;;;16.00;3.95;;;;;;;2.06;88.65;99012.38;5094489;28;19912;-52
2021/12/10 07:33:29;;;;;;;12.20;3.85;;;;;;;2.04;88.44;99010.59;5094169;28;20024;-54
2021/12/10 07:35:54;;;;;;;14.25;4.22;;;;;;;2.05;88.64;99017.41;5093873;28;20039;-54
2021/12/10 07:38:21;;;;;;;13.27;3.50;;;;;;;2.07;88.20;99014.09;5094506;28;20032;-54
2021/12/10 07:40:47;;;;;;;14.48;4.03;;;;;;;2.06;88.29;99007.28;5093902;28;20107;-58
2021/12/10 07:43:13;;;;;;;13.25;3.90;;;;;;;2.08;87.55;99004.78;5093680;28;20016;-53
2021/12/10 07:45:40;;;;;;;14.43;3.92;;;;;;;2.10;87.73;99008.25;5094013;28;20058;-55
2021/12/10 07:48:09;;;;;;;17.00;4.28;;;;;;;2.12;87.47;99006.66;5093964;28;20020;-55
2021/12/10 07:50:40;;;;;;;15.23;4.53;;;;;;;2.13;87.77;99010.88;5093523;28;20392;-54
2021/12/10 07:53:05;;;;;;;11.75;3.85;;;;;;;2.14;87.67;99010.09;5094072;28;20040;-53
2021/12/10 07:55:32;;;;;;;15.57;3.88;;;;;;;2.16;87.07;99008.47;5093763;28;20016;-53
2021/12/10 07:57:59;;;;;;;18.80;4.15;;;;;;;2.19;86.98;99013.66;5093033;28;20036;-53
2021/12/10 08:00:27;;;;;;;18.73;4.10;;;;;;;2.23;86.71;99017.16;5093720;28;20127;-53
2021/12/10 08:02:52;;;;;;;15.90;4.40;;;;;;;2.25;86.59;99025.72;5093206;28;20039;-53
2021/12/10 08:05:22;;;;;;;16.45;4.22;;;;;;;2.27;86.79;99030.03;5093777;28;20077;-52
2021/12/10 08:07:49;;;;;;;18.25;4.43;;;;;;;2.28;86.85;99028.34;5093667;28;20119;-53
2021/12/10 08:10:16;;;;;;;14.45;4.47;;;;;;;2.32;86.78;99019.16;5093207;28;20051;-52
2021/12/10 08:12:42;;;;;;;14.13;4.53;;;;;;;2.33;86.73;99020.88;5093689;28;20455;-52
2021/12/10 08:15:08;;;;;;;15.15;3.90;;;;;;;2.36;86.30;99016.75;5093539;28;20107;-49
2021/12/10 08:17:34;;;;;;;15.00;4.65;;;;;;;2.39;86.09;99010.91;5092844;28;20028;-53
2021/12/10 08:20:01;;;;;;;15.77;4.65;;;;;;;2.40;86.16;99018.59;5093595;28;20107;-54
2021/12/10 08:22:27;;;;;;;17.33;4.88;;;;;;;2.42;85.30;99016.94;5093453;28;20024;-53
2021/12/10 08:24:52;;;;;;;14.82;4.88;;;;;;;2.44;85.58;99019.53;5092688;28;20036;-55
2021/12/10 08:27:18;;;;;;;14.05;4.30;;;;;;;2.45;85.57;99021.28;5093449;28;20024;-54
2021/12/10 08:29:45;;;;;;;16.77;4.45;;;;;;;2.47;85.90;99022.19;5093213;28;20020;-53
2021/12/10 08:32:14;;;;;;;15.70;4.28;;;;;;;2.47;85.71;99024.75;5092791;28;20047;-51
2021/12/10 08:34:40;;;;;;;14.93;4.78;;;;;;;2.50;85.48;99027.38;5093216;28;20121;-53
2021/12/10 08:37:06;;;;;;;17.60;4.80;;;;;;;2.51;85.76;99025.72;5092466;28;20024;-55
2021/12/10 08:39:32;;;;;;;16.38;5.13;;;;;;;2.50;85.78;99027.38;5092493;28;20032;-53
2021/12/10 08:41:58;;;;;;;14.10;5.03;;;;;;;2.52;85.51;99020.66;5092777;28;20487;-50
2021/12/10 08:44:25;;;;;;;13.65;4.47;;;;;;;2.52;85.24;99027.41;5093054;28;20047;-51
2021/12/10 08:46:51;;;;;;;14.35;4.68;;;;;;;2.50;85.47;99029.91;5092465;28;20085;-52
2021/12/10 08:49:18;;;;;;;19.52;4.75;;;;;;;2.49;85.74;99033.25;5093340;28;20365;-52
2021/12/10 08:51:50;;;;;;;19.55;5.50;;;;;;;2.51;85.80;99030.78;5092742;28;20035;-52
2021/12/10 08:54:18;;;;;;;23.90;5.35;;;;;;;2.49;85.37;99025.63;5092361;28;20052;-54
2021/12/10 08:56:45;;;;;;;;;;;;;;;2.57;86.79;99026.75;5093066;28;20020;-54
2021/12/10 08:59:11;;;;;;;19.45;6.88;;;;;;;2.46;86.17;99023.84;5092383;28;19998;-52
2021/12/10 09:01:41;;;;;;;19.60;5.70;;;;;;;2.47;86.89;99029.81;5092661;28;20455;-53
2021/12/10 09:04:09;;;;;;;21.38;6.63;;;;;;;2.46;86.66;99028.09;5092789;28;20043;-53
2021/12/10 09:06:38;;;;;;;17.90;6.20;;;;;;;2.47;86.59;99027.28;5092270;28;20095;-54
2021/12/10 09:09:06;;;;;;;24.20;8.10;;;;;;;2.47;86.92;99024.75;5092660;28;20028;-54
2021/12/10 09:11:33;;;;;;;30.35;7.82;;;;;;;2.50;86.99;99036.69;5092636;28;20086;-53
2021/12/10 09:13:59;;;;;;;16.10;7.50;;;;;;;2.51;86.54;99035.88;5092331;28;20142;-54
2021/12/10 09:16:28;;;;;;;26.98;8.50;;;;;;;2.52;86.83;99035.03;5092982;28;20073;-55
2021/12/10 09:19:02;;;;;;;19.60;7.60;;;;;;;2.55;85.88;99042.78;5092457;28;20058;-54
2021/12/10 09:21:30;;;;;;;19.00;7.70;;;;;;;2.56;86.45;99047.91;5091965;28;20024;-55
2021/12/10 09:24:01;;;;;;;23.55;7.97;;;;;;;2.59;86.17;99045.47;5092720;28;20111;-53
2021/12/10 09:26:27;;;;;;;23.63;8.55;;;;;;;2.61;86.61;99041.31;5092427;28;20170;-54
2021/12/10 09:28:53;;;;;;;25.98;7.97;;;;;;;2.66;86.53;99045.66;5091980;28;20490;-53
2021/12/10 09:31:24;;;;;;;20.33;8.10;;;;;;;2.69;85.33;99040.69;5092705;28;20024;-54
2021/12/10 09:33:50;;;;;;;20.63;8.13;;;;;;;2.71;85.54;99046.69;5092042;28;20114;-51
2021/12/10 09:36:16;;;;;;;24.15;8.40;;;;;;;2.74;85.73;99044.25;5091937;28;20046;-54
2021/12/10 09:38:41;;;;;;;20.45;9.05;;;;;;;2.76;85.59;99052.78;5092514;28;20023;-53
2021/12/10 09:41:09;;;;;;;16.98;8.20;;;;;;;2.82;85.54;99054.66;5092372;28;20441;-54
2021/12/10 09:43:34;;;;;;;;;;;;;;;2.91;86.18;99048.19;5092511;28;20024;-53
2021/12/10 09:46:02;;;;;;;19.10;7.35;;;;;;;2.87;84.33;99050.59;5092440;28;19912;-53
2021/12/10 09:48:27;;;;;;;19.58;8.55;;;;;;;2.87;84.83;99054.00;5093588;28;20040;-53
2021/12/10 09:50:59;;;;;;;21.48;7.82;;;;;;;2.92;84.50;99049.91;5096306;28;20039;-53
2021/12/10 09:53:27;;;;;;;22.08;7.72;;;;;;;2.93;84.11;99051.66;5096071;28;20039;-53
2021/12/10 09:55:53;;;;;;;17.40;6.85;;;;;;;2.94;84.39;99048.28;5095744;28;20028;-53
2021/12/10 09:58:19;;;;;;;25.83;7.75;;;;;;;2.99;84.07;99043.31;5096249;28;20028;-54
2021/12/10 10:00:53;;;;;;;20.35;7.55;;;;;;;3.02;84.29;99045.09;5095769;28;20471;-53
2021/12/10 10:03:22;;;;;;;16.17;7.30;;;;;;;3.05;83.92;99042.66;5095615;28;20054;-51
2021/12/10 10:05:48;;;;;;;17.30;7.30;;;;;;;3.07;83.25;99041.91;5095838;28;20031;-51
2021/12/10 10:08:25;;;;;;;19.70;7.38;;;;;;;3.11;83.53;99051.34;5095777;28;20490;-54
2021/12/10 10:10:52;;;;;;;17.80;7.10;;;;;;;3.14;83.00;99055.66;5095263;28;20489;-53
2021/12/10 10:13:21;;;;;;;17.33;7.30;;;;;;;3.16;83.05;99056.56;5095945;28;20111;-53
2021/12/10 10:15:48;;;;;;;17.25;7.05;;;;;;;3.17;83.19;99053.19;5095499;28;20020;-53
2021/12/10 10:18:15;;;;;;;15.63;6.95;;;;;;;3.18;82.93;99047.31;5095410;28;20101;-54
2021/12/10 10:20:45;;;;;;;18.10;6.60;;;;;;;3.19;82.23;99054.13;5095682;28;20410;-53
2021/12/10 10:23:10;;;;;;;21.27;6.80;;;;;;;3.21;82.64;99054.16;5095564;28;20032;-54
2021/12/10 10:25:40;;;;;;;21.27;6.63;;;;;;;3.23;82.70;99055.94;5095003;28;20384;-54
2021/12/10 10:28:08;;;;;;;17.48;5.97;;;;;;;3.23;82.62;99045.75;5095543;28;20446;-54
2021/12/10 10:30:40;;;;;;;23.10;6.30;;;;;;;3.26;82.63;99056.03;5094955;28;20091;-54
2021/12/10 10:33:08;;;;;;;19.65;5.88;;;;;;;3.29;82.32;99060.34;5095774;28;20028;-53
2021/12/10 10:35:41;;;;;;;15.68;6.10;;;;;;;3.31;82.14;99058.72;5095158;28;20521;-53
2021/12/10 10:38:10;;;;;;;16.00;6.00;;;;;;;3.27;82.83;99055.22;5094996;28;20024;-52
2021/12/10 10:40:40;;;;;;;14.60;5.90;;;;;;;3.31;82.67;99057.88;5095229;28;20028;-53
2021/12/10 10:43:06;;;;;;;16.42;6.60;;;;;;;3.34;82.24;99055.41;5095557;28;20077;-54
2021/12/10 10:45:35;;;;;;;15.77;5.60;;;;;;;3.34;81.97;99052.84;5094882;28;20538;-55
2021/12/10 10:48:02;;;;;;;18.80;5.70;;;;;;;3.35;81.59;99062.22;5095487;28;20113;-55
2021/12/10 10:50:35;;;;;;;18.33;6.38;;;;;;;3.36;81.96;99061.41;5094958;28;20107;-55
2021/12/10 10:53:10;;;;;;;17.35;6.32;;;;;;;3.33;82.33;99062.19;5094634;28;20042;-52
2021/12/10 10:56:03;;;;;;;16.65;5.70;;;;;;;3.36;82.56;99051.22;5095132;28;20456;-54
2021/12/10 10:58:34;;;;;;;16.65;5.68;;;;;;;3.36;82.21;99061.41;5094641;28;20089;-54
2021/12/10 11:01:21;;;;;;;17.27;6.05;;;;;;;3.34;81.68;99063.03;5095280;28;20020;-54
2021/12/10 11:03:58;;;;;;;11.75;5.10;;;;;;;3.32;81.38;99064.66;5094682;28;20450;-48
2021/12/10 11:06:36;;;;;;;18.17;5.50;;;;;;;3.34;81.97;99068.13;5094622;28;20099;-53
2021/12/10 11:09:11;;;;;;;19.55;5.82;;;;;;;3.33;81.96;99063.84;5095109;28;20032;-54
2021/12/10 11:11:41;;;;;;;18.35;6.22;;;;;;;3.35;81.95;99069.88;5094543;28;20070;-54
2021/12/10 11:14:19;;;;;;;15.57;5.65;;;;;;;3.37;82.26;99064.00;5094236;28;20386;-53
2021/12/10 11:16:46;;;;;;;;;;;;;;;3.47;82.98;99070.22;5095024;28;20375;-54
2021/12/10 11:19:21;;;;;;;11.85;5.13;;;;;;;3.41;82.00;99064.97;5094576;28;19965;-55
2021/12/10 11:21:52;;;;;;;17.20;4.68;;;;;;;3.41;81.31;99064.97;5094065;28;20535;-55
2021/12/10 11:24:30;;;;;;;15.90;4.82;;;;;;;3.43;81.37;99076.03;5094534;28;20040;-54
2021/12/10 11:27:08;;;;;;;15.68;5.80;;;;;;;3.41;81.40;99076.00;5093644;28;20414;-53
2021/12/10 11:29:52;;;;;;;19.00;5.93;;;;;;;3.43;82.56;99068.41;5094457;28;20066;-54
2021/12/10 11:32:33;;;;;;;18.30;5.47;;;;;;;3.44;81.48;99073.53;5094260;28;20379;-54
2021/12/10 11:35:04;;;;;;;14.20;4.88;;;;;;;3.45;80.56;99077.81;5093578;28;20601;-54
2021/12/10 11:37:58;;;;;;;15.80;6.03;;;;;;;3.50;81.33;99077.06;5094095;28;20370;-55
2021/12/10 11:40:52;;;;;;;14.02;5.03;;;;;;;3.53;80.43;99075.50;5094245;28;20027;-54
2021/12/10 11:43:44;;;;;;;16.00;4.60;;;;;;;3.45;80.45;99079.50;5094168;28;20115;-55
2021/12/10 11:48:56;;;;;;;14.68;4.65;;;;;;;3.42;79.99;99087.03;5093770;28;20380;-55
2021/12/10 11:51:49;;;;;;;13.90;4.80;;;;;;;3.37;80.35;99088.56;5094130;28;20032;-55